Overview Statistics Trail Chart Weather Telemetry Raw packets
 

This is the latest recevied weather packets stored in our database for station/object KI5NXU. If no packets are shown the sender has not sent any weather packets the latest 10 day(s).

<< 26 27 28 29 30 31 32 >>
Time Temp. Humidity Pressure Rain* Wind** Luminosity Snow
1788204599 37.78° C 32% 1015 hPa 0 mm - 772 W/m² -
1788204294 37.78° C 32% 1015.3 hPa 0 mm - 322 W/m² -
1788203989 37.78° C 32% 1015.3 hPa 0 mm - 511 W/m² -
1788203685 37.78° C 32% 1015.3 hPa 0 mm - 730 W/m² -
1788203381 37.78° C 32% 1015.3 hPa 0 mm - 697 W/m² -
1788203076 36.67° C 33% 1015.4 hPa 0 mm - 704 W/m² -
1788202775 36.67° C 33% 1015.2 hPa 0 mm - 184 W/m² -
1788202471 37.78° C 32% 1015.6 hPa 0 mm - 251 W/m² -
1788202170 37.22° C 32% 1015.4 hPa 0 mm - 768 W/m² -
1788201866 36.67° C 36% 1015.7 hPa 0 mm - 775 W/m² -
1788201561 36.67° C 35% 1016 hPa 0 mm - 231 W/m² -
1788201260 37.22° C 34% 1015.8 hPa 0 mm - 739 W/m² -
1788200954 35° C 37% 1016 hPa 0 mm - 779 W/m² -
1788200649 35.56° C 38% 1015.8 hPa 0 mm - 503 W/m² -
1788200345 36.67° C 36% 1016.2 hPa 0 mm - 197 W/m² -
1788200040 35.56° C 37% 1016 hPa 0 mm - 759 W/m² -
1788199740 35° C 38% 1016.2 hPa 0 mm - 157 W/m² -
1788199434 37.22° C 36% 1016.3 hPa 0 mm - 152 W/m² -
1788199134 36.67° C 37% 1016.4 hPa 0 mm - 582 W/m² -
1788198830 35.56° C 37% 1016.4 hPa 0 mm - 779 W/m² -
1788198526 35.56° C 37% 1016.7 hPa 0 mm - 787 W/m² -
1788198221 35° C 40% 1016.6 hPa 0 mm - 153 W/m² -
1788197920 35.56° C 41% 1016.3 hPa 0 mm - 135 W/m² -
1788197620 35° C 40% 1016.8 hPa 0 mm - 772 W/m² -
1788197315 35.56° C 40% 1016.9 hPa 0 mm - 765 W/m² -

* Rain latest hour (hover to see other rain measurements)
** Current wind speed in m/s (hover to see current wind gust speed)